createdAt,value
2018-06-30T04:51:14.709Z,96693.87
2018-06-30T04:52:20.629Z,96690.20
2018-06-30T04:53:26.575Z,96695.38
2018-06-30T04:54:35.278Z,96689.71
2018-06-30T04:55:41.469Z,96692.47
2018-06-30T04:56:48.595Z,96694.66
2018-06-30T04:57:54.743Z,96694.98
2018-06-30T04:59:00.845Z,96692.59
2018-06-30T05:00:07.638Z,96695.97
2018-06-30T05:01:14.613Z,96697.41
2018-06-30T05:02:21.024Z,96698.86
2018-06-30T05:03:27.883Z,96708.48
2018-06-30T05:04:34.163Z,96708.54
2018-06-30T05:05:40.679Z,96707.47
2018-06-30T05:06:46.900Z,96712.16
2018-06-30T05:07:53.755Z,96713.27
2018-06-30T05:09:00.814Z,96711.38
2018-06-30T05:10:07.474Z,96711.42
2018-06-30T05:11:13.566Z,96710.88
2018-06-30T05:12:19.874Z,96706.59
2018-06-30T05:13:27.539Z,96706.63
2018-06-30T05:14:35.235Z,96710.16
2018-06-30T05:15:41.325Z,96705.27
2018-06-30T05:16:48.207Z,96707.77
2018-06-30T05:17:55.969Z,96706.98
2018-06-30T05:19:04.711Z,96705.39
2018-06-30T05:20:12.257Z,96708.78
2018-06-30T05:21:18.453Z,96701.48
2018-06-30T05:22:25.336Z,96709.31
2018-06-30T05:23:31.254Z,96707.13
2018-06-30T05:24:37.347Z,96712.11
2018-06-30T05:25:43.383Z,96714.83
2018-06-30T05:26:49.557Z,96715.67
2018-06-30T05:27:56.624Z,96709.70
2018-06-30T05:29:03.481Z,96717.63
2018-06-30T05:30:10.287Z,96714.42
2018-06-30T05:31:16.367Z,96715.84
2018-06-30T05:32:22.555Z,96713.87
2018-06-30T05:33:29.512Z,96717.45
2018-06-30T05:34:37.065Z,96716.70
2018-06-30T05:35:43.185Z,96719.48
2018-06-30T05:36:50.049Z,96717.76
2018-06-30T05:37:55.953Z,96720.39
2018-06-30T05:39:02.107Z,96719.85
2018-06-30T05:40:08.903Z,96716.57
2018-06-30T05:41:15.969Z,96719.56
2018-06-30T05:42:23.713Z,96719.05
2018-06-30T05:43:29.854Z,96722.38
2018-06-30T05:44:41.060Z,96717.84
2018-06-30T05:45:49.274Z,96714.31
2018-06-30T05:46:56.507Z,96715.31
2018-06-30T05:48:02.583Z,96717.48
2018-06-30T05:49:08.712Z,96718.17
2018-06-30T05:50:14.778Z,96714.05
2018-06-30T05:51:24.694Z,96724.66
2018-06-30T05:52:31.512Z,96724.42
2018-06-30T05:53:38.282Z,96723.06
2018-06-30T05:54:44.530Z,96726.59
2018-06-30T05:55:50.702Z,96729.18
2018-06-30T05:56:58.754Z,96724.81
2018-06-30T05:58:04.795Z,96722.03
2018-06-30T05:59:12.942Z,96727.13
2018-06-30T06:00:19.024Z,96723.00
2018-06-30T06:01:25.297Z,96726.86
2018-06-30T06:02:31.500Z,96734.48
2018-06-30T06:03:39.182Z,96734.59
2018-06-30T06:04:45.352Z,96739.69
2018-06-30T06:05:52.113Z,96728.44
2018-06-30T06:07:00.574Z,96727.17
2018-06-30T06:08:08.022Z,96729.97
2018-06-30T06:09:14.355Z,96722.76
2018-06-30T06:10:21.869Z,96722.86
2018-06-30T06:11:29.013Z,96721.94
2018-06-30T06:12:34.969Z,96723.01
2018-06-30T06:13:41.019Z,96727.02
2018-06-30T06:14:46.953Z,96723.20
2018-06-30T06:15:54.061Z,96726.22
2018-06-30T06:17:02.666Z,96723.91
2018-06-30T06:18:09.665Z,96724.00
2018-06-30T06:19:15.675Z,96727.34
2018-06-30T06:20:22.483Z,96729.73
2018-06-30T06:21:31.726Z,96729.81
2018-06-30T06:22:37.895Z,96729.90
2018-06-30T06:23:43.888Z,96730.56
2018-06-30T06:24:50.125Z,96724.34
2018-06-30T06:26:00.914Z,96726.02
2018-06-30T06:27:08.651Z,96728.66
2018-06-30T06:28:16.361Z,96725.98
2018-06-30T06:29:22.515Z,96729.03
2018-06-30T06:30:31.004Z,96728.45
2018-06-30T06:31:39.683Z,96731.06
2018-06-30T06:32:46.113Z,96724.88
2018-06-30T06:33:53.062Z,96728.90
2018-06-30T06:34:59.907Z,96731.72
2018-06-30T06:36:06.588Z,96727.43
2018-06-30T06:37:13.300Z,96727.12
2018-06-30T06:38:20.274Z,96726.75
2018-06-30T06:39:26.732Z,96730.02
2018-06-30T06:40:34.718Z,96731.84
2018-06-30T06:41:43.613Z,96727.94
2018-06-30T06:42:50.932Z,96732.52
2018-06-30T06:44:04.664Z,96730.22
2018-06-30T06:45:10.742Z,96732.03
2018-06-30T06:46:17.500Z,96731.91
2018-06-30T06:47:23.624Z,96737.67
2018-06-30T06:48:29.399Z,96737.52
2018-06-30T06:49:39.348Z,96732.62
2018-06-30T06:50:45.491Z,96741.91
2018-06-30T06:51:51.527Z,96734.66
2018-06-30T06:52:57.642Z,96733.52
2018-06-30T06:54:03.739Z,96733.94
2018-06-30T06:55:09.692Z,96742.84
2018-06-30T06:56:16.789Z,96736.76
2018-06-30T06:57:23.363Z,96739.16
2018-06-30T06:58:29.267Z,96727.69
2018-06-30T06:59:35.289Z,96735.58
2018-06-30T07:00:42.189Z,96735.20
2018-06-30T07:01:48.148Z,96732.47
2018-06-30T07:02:54.261Z,96735.78
2018-06-30T07:04:01.130Z,96733.59
2018-06-30T07:05:07.585Z,96735.38
2018-06-30T07:06:13.732Z,96736.16
2018-06-30T07:13:39.136Z,96739.31
2018-06-30T07:14:48.280Z,96738.32
2018-06-30T07:15:54.258Z,96739.05
2018-06-30T07:17:02.322Z,96739.22
2018-06-30T07:18:09.414Z,96738.58
2018-06-30T07:19:15.714Z,96738.52
2018-06-30T07:20:21.806Z,96735.48
2018-06-30T07:21:27.916Z,96735.03
2018-06-30T07:22:34.754Z,96734.62
2018-06-30T07:23:43.202Z,96729.63
2018-06-30T07:24:49.394Z,96737.67
2018-06-30T07:25:56.231Z,96731.07
2018-06-30T07:27:11.340Z,96736.94
2018-06-30T07:28:19.023Z,96735.73
2018-06-30T07:29:25.044Z,96739.83
2018-06-30T07:30:31.103Z,96733.83
2018-06-30T07:31:39.062Z,96733.77
2018-06-30T07:40:42.145Z,96725.28
2018-06-30T07:41:49.457Z,96731.30
2018-06-30T07:42:55.620Z,96727.08
2018-06-30T07:44:01.984Z,96732.30
2018-06-30T07:45:08.182Z,96724.62
2018-06-30T07:46:14.663Z,96731.05
2018-06-30T07:47:21.083Z,96732.88
2018-06-30T07:48:27.420Z,96735.70
2018-06-30T07:49:34.418Z,96733.20
2018-06-30T07:50:40.293Z,96727.77
2018-06-30T07:51:46.817Z,96729.44
2018-06-30T07:52:56.759Z,96732.31
2018-06-30T07:54:03.431Z,96732.19
2018-06-30T07:55:16.976Z,96729.86
2018-06-30T07:56:23.309Z,96732.77
2018-06-30T07:57:32.141Z,96732.66
2018-06-30T07:58:39.012Z,96728.74
2018-06-30T07:59:47.314Z,96729.59
2018-06-30T08:00:53.109Z,96730.63
2018-06-30T08:01:59.022Z,96732.13
2018-06-30T08:03:05.226Z,96734.80
2018-06-30T08:04:13.891Z,96736.48
2018-06-30T08:05:25.441Z,96736.55
2018-06-30T08:06:31.438Z,96735.39
2018-06-30T08:07:39.357Z,96736.25
2018-06-30T08:08:45.416Z,96727.77
2018-06-30T08:09:54.076Z,96731.28
2018-06-30T08:11:01.355Z,96729.64
2018-06-30T08:12:07.436Z,96726.97
2018-06-30T08:13:13.497Z,96728.20
2018-06-30T08:14:20.628Z,96723.55
2018-06-30T08:16:28.121Z,96727.22
2018-06-30T08:17:34.526Z,96727.59
2018-06-30T08:18:41.700Z,96726.77
2018-06-30T08:19:48.288Z,96723.19
2018-06-30T08:20:54.604Z,96720.97
2018-06-30T08:22:03.667Z,96720.97
2018-06-30T08:23:09.647Z,96720.18
2018-06-30T08:24:15.748Z,96714.01
2018-06-30T08:25:21.982Z,96716.16
2018-06-30T08:26:28.235Z,96713.70
2018-06-30T08:27:34.748Z,96710.13
2018-06-30T08:28:40.763Z,96709.30
2018-06-30T08:29:49.616Z,96714.62
2018-06-30T08:30:55.621Z,96715.34
2018-06-30T08:32:02.115Z,96710.90
2018-06-30T08:33:08.282Z,96713.69
2018-06-30T08:34:14.325Z,96711.84
2018-06-30T08:35:22.895Z,96713.16
2018-06-30T08:36:29.911Z,96712.08
2018-06-30T08:37:35.917Z,96710.34
2018-06-30T08:38:43.741Z,96704.51
2018-06-30T08:39:49.796Z,96705.11
2018-06-30T08:40:56.036Z,96706.70
2018-06-30T08:42:02.513Z,96709.30
2018-06-30T08:43:09.802Z,96709.11
2018-06-30T08:44:18.740Z,96705.91
2018-06-30T08:45:25.245Z,96701.27
2018-06-30T08:46:31.310Z,96704.99
2018-06-30T08:47:39.531Z,96702.39
2018-06-30T08:48:47.968Z,96705.34
2018-06-30T08:49:54.179Z,96697.58
2018-06-30T08:51:00.276Z,96705.17
2018-06-30T08:52:06.488Z,96693.70
2018-06-30T08:53:16.497Z,96698.14
2018-06-30T08:54:24.040Z,96698.75
2018-06-30T08:55:31.701Z,96691.78
2018-06-30T08:56:38.489Z,96692.75
2018-06-30T08:57:45.171Z,96690.86
2018-06-30T08:58:51.195Z,96692.63
2018-06-30T08:59:57.386Z,96694.97
2018-06-30T09:01:04.123Z,96696.62
2018-06-30T09:02:10.793Z,96692.10
2018-06-30T09:03:19.183Z,96689.66
2018-06-30T09:04:26.212Z,96692.48
2018-06-30T09:05:36.412Z,96687.78
2018-06-30T09:06:44.443Z,96691.52
2018-06-30T09:07:53.091Z,96694.10
2018-06-30T09:09:09.004Z,96696.18
2018-06-30T09:10:31.008Z,96692.63
2018-06-30T09:11:41.071Z,96692.86
2018-06-30T09:12:47.350Z,96693.50
2018-06-30T09:13:54.885Z,96692.48
2018-06-30T09:15:00.950Z,96698.94
2018-06-30T09:16:08.983Z,96699.35
2018-06-30T09:17:15.250Z,96702.22
2018-06-30T09:18:24.809Z,96703.52
2018-06-30T09:19:32.855Z,96704.20
2018-06-30T09:20:39.938Z,96702.63
2018-06-30T09:21:46.427Z,96702.02
2018-06-30T09:22:54.198Z,96709.66
2018-06-30T09:24:03.875Z,96701.03
2018-06-30T09:25:10.201Z,96701.36
2018-06-30T09:26:17.220Z,96702.14
2018-06-30T09:27:24.160Z,96701.74
2018-06-30T09:28:34.972Z,96704.76
2018-06-30T09:29:41.138Z,96702.83
2018-06-30T09:30:49.399Z,96700.46
2018-06-30T09:31:55.447Z,96700.48
2018-06-30T09:33:03.514Z,96697.69
2018-06-30T09:34:09.944Z,96696.88
2018-06-30T09:35:16.103Z,96700.33
2018-06-30T09:36:25.888Z,96694.78
2018-06-30T09:37:35.977Z,96699.62
2018-06-30T09:38:42.322Z,96698.11
2018-06-30T09:39:48.633Z,96694.77
2018-06-30T09:40:54.685Z,96697.36
2018-06-30T09:42:01.655Z,96701.97
2018-06-30T09:43:08.600Z,96698.45
2018-06-30T09:44:15.522Z,96701.37
2018-06-30T09:45:21.575Z,96702.66
2018-06-30T09:46:28.066Z,96699.58
2018-06-30T09:47:34.215Z,96705.21
2018-06-30T09:48:41.829Z,96698.10
2018-06-30T09:49:52.869Z,96696.45
2018-06-30T09:50:59.024Z,96694.80
2018-06-30T09:52:06.074Z,96690.32
2018-06-30T09:53:13.133Z,96699.13
2018-06-30T09:54:19.542Z,96698.05
2018-06-30T09:55:28.457Z,96695.35
2018-06-30T09:56:36.247Z,96697.16
2018-06-30T09:57:45.400Z,96691.86
2018-06-30T09:58:51.540Z,96695.84
2018-06-30T10:00:00.392Z,96690.08
2018-06-30T10:01:09.065Z,96694.47
2018-06-30T10:02:16.174Z,96694.48
2018-06-30T10:03:25.463Z,96699.64
2018-06-30T10:04:36.480Z,96688.79
2018-06-30T10:05:46.131Z,96687.00
2018-06-30T10:06:54.347Z,96688.39
2018-06-30T10:08:14.286Z,96688.19
2018-06-30T10:09:22.162Z,96683.45
2018-06-30T10:10:30.366Z,96683.45
2018-06-30T10:11:36.918Z,96692.36
2018-06-30T10:12:43.200Z,96690.97
2018-06-30T10:13:49.862Z,96685.44
2018-06-30T10:15:00.508Z,96686.58
2018-06-30T10:16:06.952Z,96681.84
2018-06-30T10:17:13.348Z,96683.63
2018-06-30T10:18:20.728Z,96684.18
2018-06-30T10:19:29.272Z,96677.06
2018-06-30T10:20:35.634Z,96676.20
2018-06-30T10:21:41.704Z,96676.02
2018-06-30T10:22:48.918Z,96680.13
2018-06-30T10:23:57.082Z,96671.06
2018-06-30T10:25:05.400Z,96674.20
2018-06-30T10:26:12.660Z,96671.86
2018-06-30T10:27:19.151Z,96676.58
2018-06-30T10:28:27.068Z,96672.59
2018-06-30T10:29:35.283Z,96674.12
2018-06-30T10:30:44.226Z,96668.51
2018-06-30T10:31:52.693Z,96666.45
2018-06-30T10:33:02.713Z,96670.72
2018-06-30T10:34:08.879Z,96667.67
2018-06-30T10:35:15.446Z,96664.52
2018-06-30T10:36:22.172Z,96673.55
2018-06-30T10:37:31.758Z,96669.72
2018-06-30T10:38:39.485Z,96673.22
2018-06-30T10:39:47.250Z,96671.17
2018-06-30T10:40:56.076Z,96669.31
2018-06-30T10:42:10.747Z,96665.70
2018-06-30T10:43:16.649Z,96664.69
2018-06-30T10:44:22.877Z,96670.13
2018-06-30T10:45:32.339Z,96663.42
2018-06-30T10:46:38.750Z,96662.56
2018-06-30T10:47:47.089Z,96658.98
2018-06-30T10:48:54.944Z,96658.58
2018-06-30T10:50:18.662Z,96659.12
2018-06-30T10:51:33.767Z,96661.41
2018-06-30T10:54:58.041Z,96654.91
2018-06-30T10:56:05.234Z,96657.19
2018-06-30T10:57:12.021Z,96660.30
2018-06-30T10:58:18.251Z,96650.23
2018-06-30T10:59:24.451Z,96654.97
2018-06-30T11:00:32.011Z,96648.70
2018-06-30T11:01:38.137Z,96652.00
2018-06-30T11:02:44.463Z,96647.25
2018-06-30T11:03:50.659Z,96647.38
2018-06-30T11:04:58.171Z,96649.05
2018-06-30T11:06:06.947Z,96649.59
2018-06-30T11:07:17.568Z,96649.22
2018-06-30T11:08:25.662Z,96647.84
2018-06-30T11:09:33.497Z,96647.17
2018-06-30T11:10:42.383Z,96635.84
2018-06-30T11:12:02.143Z,96644.36
2018-06-30T11:13:09.012Z,96641.97
2018-06-30T11:14:15.273Z,96640.02
2018-06-30T11:15:21.564Z,96639.83
2018-06-30T11:16:27.819Z,96633.31
2018-06-30T11:17:34.462Z,96636.46
2018-06-30T11:18:40.750Z,96642.28
2018-06-30T11:19:48.260Z,96636.34
2018-06-30T11:20:55.427Z,96630.31
2018-06-30T11:22:01.471Z,96629.22
2018-06-30T11:23:07.796Z,96633.52
2018-06-30T11:24:18.975Z,96627.44
2018-06-30T11:25:25.295Z,96628.23
2018-06-30T11:26:31.847Z,96628.59
2018-06-30T11:27:46.143Z,96626.68
2018-06-30T11:29:01.854Z,96628.68
2018-06-30T11:30:08.041Z,96625.71
2018-06-30T11:31:31.352Z,96620.83
2018-06-30T11:32:45.296Z,96620.21
2018-06-30T11:33:56.729Z,96621.14
2018-06-30T11:35:09.024Z,96620.30
2018-06-30T11:36:20.544Z,96617.36
2018-06-30T11:37:26.845Z,96613.23
2018-06-30T11:38:36.828Z,96617.98
2018-06-30T11:39:43.033Z,96608.94
2018-06-30T11:40:50.632Z,96615.55
2018-06-30T11:41:56.773Z,96612.34
2018-06-30T11:43:02.925Z,96620.55
2018-06-30T11:44:11.719Z,96617.54
2018-06-30T11:45:19.185Z,96611.05
2018-06-30T11:46:25.705Z,96616.42
2018-06-30T11:47:32.969Z,96612.66
2018-06-30T11:48:41.866Z,96613.05
2018-06-30T11:49:48.083Z,96609.29
2018-06-30T11:50:57.398Z,96607.16
2018-06-30T11:52:03.674Z,96606.97
2018-06-30T11:53:19.936Z,96608.75
2018-06-30T11:54:28.029Z,96607.51
2018-06-30T11:55:37.130Z,96607.68
2018-06-30T11:56:43.355Z,96604.49
2018-06-30T11:57:50.781Z,96604.88
2018-06-30T11:59:01.616Z,96602.93
2018-06-30T12:00:11.063Z,96599.84
2018-06-30T12:01:18.201Z,96602.23
2018-06-30T12:02:25.674Z,96605.33
2018-06-30T12:03:33.392Z,96598.85
2018-06-30T12:04:41.379Z,96599.57
2018-06-30T12:05:48.978Z,96602.32
2018-06-30T12:06:57.555Z,96602.27
2018-06-30T12:08:03.611Z,96602.13
2018-06-30T12:09:12.178Z,96600.23
2018-06-30T12:10:19.334Z,96603.95
2018-06-30T12:11:26.872Z,96599.62
2018-06-30T12:12:34.761Z,96593.35
2018-06-30T12:13:41.432Z,96597.26
2018-06-30T12:14:48.727Z,96590.09
2018-06-30T12:15:58.141Z,96593.23
2018-06-30T12:17:08.450Z,96591.86
2018-06-30T12:18:14.541Z,96590.84
2018-06-30T12:19:20.925Z,96587.30
2018-06-30T12:20:31.455Z,96585.56
2018-06-30T12:21:41.251Z,96584.55
2018-06-30T12:22:47.395Z,96587.11
2018-06-30T12:23:55.645Z,96585.69
2018-06-30T12:25:02.581Z,96588.58
2018-06-30T12:26:09.342Z,96584.45
2018-06-30T12:27:15.848Z,96582.94
2018-06-30T12:28:22.332Z,96588.67
2018-06-30T12:29:31.324Z,96591.23
2018-06-30T12:30:40.043Z,96589.86
2018-06-30T12:31:48.252Z,96583.92
2018-06-30T12:32:54.744Z,96576.86
2018-06-30T12:34:00.888Z,96582.02
2018-06-30T12:35:11.080Z,96583.39
2018-06-30T12:36:19.471Z,96584.77
2018-06-30T12:37:29.039Z,96588.05
2018-06-30T12:40:18.986Z,96584.17
2018-06-30T12:41:25.653Z,96582.34
2018-06-30T12:42:33.430Z,96582.74
2018-06-30T12:43:41.492Z,96584.34
2018-06-30T12:44:48.419Z,96586.12
2018-06-30T12:45:55.045Z,96580.27
2018-06-30T12:47:02.273Z,96582.05
2018-06-30T12:48:08.501Z,96579.52
2018-06-30T12:49:18.195Z,96579.30
2018-06-30T12:50:24.503Z,96583.42
2018-06-30T12:51:34.829Z,96583.42
2018-06-30T12:52:42.593Z,96585.20
2018-06-30T12:53:48.621Z,96586.80
2018-06-30T12:54:56.470Z,96591.94
2018-06-30T12:56:03.271Z,96581.92
2018-06-30T12:57:09.861Z,96583.73
2018-06-30T12:58:17.359Z,96581.39
2018-06-30T12:59:24.619Z,96583.03
2018-06-30T13:00:36.652Z,96584.59
2018-06-30T13:01:48.897Z,96580.86
2018-06-30T13:02:55.460Z,96581.05
2018-06-30T13:04:02.214Z,96573.59
2018-06-30T13:05:08.564Z,96572.08
2018-06-30T13:06:15.342Z,96578.19
2018-06-30T13:07:21.293Z,96582.89
2018-06-30T13:08:27.304Z,96576.92
2018-06-30T13:09:37.078Z,96574.78
2018-06-30T13:10:44.431Z,96577.53
2018-06-30T13:11:50.632Z,96571.67
2018-06-30T13:12:58.684Z,96570.84
2018-06-30T13:14:08.060Z,96569.64
2018-06-30T13:15:14.482Z,96567.47
2018-06-30T13:16:22.705Z,96572.39
2018-06-30T13:17:29.287Z,96570.44
2018-06-30T13:18:35.808Z,96568.48
2018-06-30T13:19:42.540Z,96567.47
2018-06-30T13:20:49.224Z,96570.39
2018-06-30T13:21:55.345Z,96570.92
2018-06-30T13:23:01.477Z,96575.80
2018-06-30T13:24:09.207Z,96572.20
2018-06-30T13:25:15.357Z,96576.67
2018-06-30T13:26:21.475Z,96570.55
2018-06-30T13:27:29.245Z,96574.04
2018-06-30T13:28:35.974Z,96576.57
2018-06-30T13:29:42.305Z,96570.11
2018-06-30T13:30:48.535Z,96567.36
2018-06-30T13:31:56.029Z,96570.91
2018-06-30T13:33:02.419Z,96571.48
2018-06-30T13:34:09.264Z,96570.55
2018-06-30T13:35:16.919Z,96562.87
2018-06-30T13:36:23.594Z,96562.70
2018-06-30T13:37:32.456Z,96557.21
2018-06-30T13:38:40.277Z,96561.38
2018-06-30T13:39:46.605Z,96558.46
2018-06-30T13:40:52.837Z,96555.94
2018-06-30T13:41:59.142Z,96555.94
2018-06-30T13:43:05.942Z,96562.00
2018-06-30T13:44:13.891Z,96557.09
2018-06-30T13:45:20.876Z,96559.26
2018-06-30T13:46:27.262Z,96552.56
2018-06-30T13:47:33.321Z,96555.53
2018-06-30T13:48:41.817Z,96551.23
2018-06-30T13:49:47.949Z,96552.39
2018-06-30T13:50:59.732Z,96553.81
2018-06-30T13:52:06.079Z,96549.91
2018-06-30T13:53:13.100Z,96553.06
2018-06-30T13:54:23.936Z,96548.94
2018-06-30T13:55:31.182Z,96546.41
2018-06-30T13:56:41.482Z,96550.53
2018-06-30T13:57:47.617Z,96545.97
2018-06-30T13:58:54.764Z,96550.08
2018-06-30T14:00:02.104Z,96545.52
2018-06-30T14:01:08.459Z,96545.30
2018-06-30T14:02:15.756Z,96544.94
2018-06-30T14:03:24.102Z,96544.53
2018-06-30T14:04:43.815Z,96541.92
2018-06-30T14:05:50.125Z,96539.30
2018-06-30T14:06:56.874Z,96535.35
2018-06-30T14:08:02.974Z,96533.98
2018-06-30T14:09:11.458Z,96537.30
2018-06-30T14:10:17.670Z,96540.63
2018-06-30T14:11:23.809Z,96533.98
2018-06-30T14:12:29.980Z,96538.63
2018-06-30T14:13:38.160Z,96531.98
2018-06-30T14:14:44.565Z,96528.66
2018-06-30T14:15:50.664Z,96531.98
2018-06-30T14:16:56.882Z,96526.27
2018-06-30T14:18:03.298Z,96530.77
2018-06-30T14:19:09.513Z,96529.59
2018-06-30T14:20:18.625Z,96530.77
2018-06-30T14:21:25.647Z,96529.23
2018-06-30T14:22:32.699Z,96529.23
2018-06-30T14:23:41.994Z,96529.64
2018-06-30T14:24:52.310Z,96526.53
2018-06-30T14:25:59.044Z,96526.14
2018-06-30T14:27:10.585Z,96526.14
2018-06-30T14:28:19.752Z,96530.70
2018-06-30T14:29:26.025Z,96519.89
2018-06-30T14:30:31.978Z,96531.68
2018-06-30T14:31:42.539Z,96524.23
2018-06-30T14:32:50.758Z,96523.83
2018-06-30T14:33:56.980Z,96519.88
2018-06-30T14:35:03.051Z,96523.39
2018-06-30T14:36:09.279Z,96524.77
2018-06-30T14:37:16.513Z,96532.03
2018-06-30T14:38:22.680Z,96530.07
2018-06-30T14:39:29.557Z,96524.94
2018-06-30T14:40:35.804Z,96524.94
2018-06-30T14:41:41.937Z,96521.25
2018-06-30T14:42:49.687Z,96526.98
2018-06-30T14:43:58.569Z,96522.28
2018-06-30T14:45:04.831Z,96524.86
2018-06-30T14:46:10.669Z,96522.69
2018-06-30T14:47:18.664Z,96521.36
2018-06-30T14:48:31.629Z,96527.44
2018-06-30T14:49:39.322Z,96516.83
2018-06-30T14:50:48.407Z,96522.11
2018-06-30T14:51:57.974Z,96516.44
2018-06-30T14:53:04.117Z,96520.56
2018-06-30T14:54:10.423Z,96516.48
2018-06-30T14:55:16.561Z,96519.86
2018-06-30T14:56:22.950Z,96518.91
2018-06-30T14:57:29.128Z,96519.31
2018-06-30T14:58:38.505Z,96518.56
2018-06-30T14:59:45.582Z,96518.37
2018-06-30T15:00:52.578Z,96514.45
2018-06-30T15:01:58.653Z,96525.44
2018-06-30T15:03:08.027Z,96515.81
2018-06-30T15:04:14.212Z,96522.91
2018-06-30T15:05:20.999Z,96516.78
2018-06-30T15:06:27.215Z,96517.00
2018-06-30T15:07:33.475Z,96517.77
2018-06-30T15:08:39.532Z,96515.99
2018-06-30T15:09:45.839Z,96518.91
2018-06-30T15:10:53.474Z,96518.70
2018-06-30T15:11:59.731Z,96520.87
2018-06-30T15:13:06.298Z,96519.13
2018-06-30T15:14:16.568Z,96516.96
2018-06-30T15:15:22.926Z,96511.83
2018-06-30T15:16:30.061Z,96513.41
2018-06-30T15:17:36.433Z,96515.95
2018-06-30T15:18:42.491Z,96512.22
2018-06-30T15:19:48.549Z,96513.16
2018-06-30T15:20:55.540Z,96514.92
2018-06-30T15:22:01.933Z,96514.48
2018-06-30T15:23:09.082Z,96513.06
2018-06-30T15:24:16.073Z,96511.86
2018-06-30T15:25:22.169Z,96510.09
2018-06-30T15:26:28.371Z,96504.77
2018-06-30T15:27:34.497Z,96502.73
2018-06-30T15:28:42.225Z,96501.75
2018-06-30T15:29:50.876Z,96505.48
2018-06-30T15:30:57.010Z,96501.75
2018-06-30T15:32:03.023Z,96498.78
2018-06-30T15:33:09.220Z,96514.28
2018-06-30T15:34:15.401Z,96499.31
2018-06-30T15:35:21.534Z,96503.03
2018-06-30T15:36:28.319Z,96499.88
2018-06-30T15:37:34.651Z,96496.69
2018-06-30T15:38:40.855Z,96499.44
2018-06-30T15:39:47.145Z,96493.15
2018-06-30T15:40:54.679Z,96487.25
2018-06-30T15:42:03.362Z,96491.95
2018-06-30T15:43:09.666Z,96495.66
2018-06-30T15:44:17.783Z,96492.12
2018-06-30T15:45:23.951Z,96492.70
2018-06-30T15:46:30.110Z,96490.53
2018-06-30T15:47:36.143Z,96486.55
2018-06-30T15:48:42.457Z,96481.00
2018-06-30T15:49:48.503Z,96482.55
2018-06-30T15:50:56.491Z,96482.72
2018-06-30T15:52:03.873Z,96488.79
2018-06-30T15:53:09.979Z,96486.04
2018-06-30T15:54:17.080Z,96487.83
2018-06-30T15:55:26.679Z,96481.39
2018-06-30T15:56:32.833Z,96487.47
2018-06-30T15:57:39.617Z,96481.17
2018-06-30T15:58:45.721Z,96483.34
2018-06-30T15:59:51.931Z,96480.77
2018-06-30T16:01:01.172Z,96483.70
2018-06-30T16:02:07.329Z,96482.14
2018-06-30T16:03:13.361Z,96483.88
2018-06-30T16:04:19.449Z,96477.39
2018-06-30T16:05:27.752Z,96480.33
2018-06-30T16:06:33.999Z,96482.50
2018-06-30T16:07:41.392Z,96477.80
2018-06-30T16:08:47.484Z,96476.02
2018-06-30T16:09:54.735Z,96476.73
2018-06-30T16:11:02.864Z,96479.70
2018-06-30T16:12:09.660Z,96477.30
2018-06-30T16:13:17.773Z,96477.88
2018-06-30T16:14:24.344Z,96476.86
2018-06-30T16:15:30.462Z,96479.20
2018-06-30T16:16:39.393Z,96477.41
2018-06-30T16:17:45.621Z,96477.83
2018-06-30T16:18:52.680Z,96476.23
2018-06-30T16:19:59.147Z,96481.72
2018-06-30T16:21:05.296Z,96484.06
2018-06-30T16:22:11.359Z,96476.05
2018-06-30T16:23:17.551Z,96485.44
2018-06-30T16:24:23.769Z,96485.44
2018-06-30T16:25:29.870Z,96476.05
2018-06-30T16:26:36.209Z,96482.69
2018-06-30T16:27:43.559Z,96482.30
2018-06-30T16:28:50.134Z,96479.94
2018-06-30T16:29:56.207Z,96476.18
2018-06-30T16:31:03.089Z,96477.55
2018-06-30T16:32:09.394Z,96481.84
2018-06-30T16:33:15.589Z,96481.21
2018-06-30T16:34:23.510Z,96480.41
2018-06-30T16:35:30.832Z,96482.53
2018-06-30T16:36:36.993Z,96471.28
2018-06-30T16:37:43.131Z,96485.22
2018-06-30T16:38:49.306Z,96480.70
2018-06-30T16:39:56.630Z,96477.16
2018-06-30T16:41:02.946Z,96479.33
2018-06-30T16:42:09.459Z,96481.44
2018-06-30T16:43:22.150Z,96482.81
2018-06-30T16:44:32.643Z,96482.81
2018-06-30T16:45:39.480Z,96482.18
2018-06-30T16:46:47.361Z,96483.55
2018-06-30T16:47:54.385Z,96477.05
2018-06-30T16:49:00.694Z,96480.14
2018-06-30T16:50:07.033Z,96478.11
2018-06-30T16:51:15.920Z,96478.72
2018-06-30T16:52:23.881Z,96477.48
2018-06-30T16:53:32.099Z,96479.81
2018-06-30T16:54:39.422Z,96481.35
2018-06-30T16:55:46.044Z,96485.02
2018-06-30T16:56:52.410Z,96487.58
2018-06-30T16:57:58.801Z,96489.53
2018-06-30T16:59:05.048Z,96486.34
2018-06-30T17:00:12.103Z,96479.30
2018-06-30T17:01:19.186Z,96484.94
2018-06-30T17:02:25.465Z,96485.52
2018-06-30T17:03:31.850Z,96481.98
2018-06-30T17:04:38.127Z,96483.12
2018-06-30T17:05:44.140Z,96483.29
2018-06-30T17:06:50.575Z,96479.75
2018-06-30T17:07:56.775Z,96482.66
2018-06-30T17:09:04.095Z,96483.59
2018-06-30T17:10:10.676Z,96479.63
2018-06-30T17:11:16.868Z,96489.81
2018-06-30T17:12:24.833Z,96482.31
2018-06-30T17:13:34.294Z,96485.06
2018-06-30T17:14:40.645Z,96486.59
2018-06-30T17:15:47.189Z,96480.70
2018-06-30T17:16:53.604Z,96478.30
2018-06-30T17:17:59.836Z,96489.50
2018-06-30T17:19:06.780Z,96482.99
2018-06-30T17:20:13.978Z,96484.52
2018-06-30T17:21:21.383Z,96481.56
2018-06-30T17:22:27.673Z,96487.42
2018-06-30T17:23:34.875Z,96483.25
2018-06-30T17:24:41.947Z,96483.95
2018-06-30T17:25:48.398Z,96482.59
2018-06-30T17:26:58.710Z,96488.87
2018-06-30T17:28:04.970Z,96486.48
2018-06-30T17:29:11.283Z,96486.98
2018-06-30T17:30:18.154Z,96490.47
2018-06-30T17:31:24.726Z,96491.99
2018-06-30T17:32:31.125Z,96488.90
2018-06-30T17:33:39.224Z,96490.40
2018-06-30T17:34:45.407Z,96489.63
2018-06-30T17:35:52.280Z,96491.92
2018-06-30T17:37:01.322Z,96490.72
2018-06-30T17:38:07.897Z,96489.69
2018-06-30T17:39:15.404Z,96491.45
2018-06-30T17:40:24.202Z,96489.44
2018-06-30T17:41:38.005Z,96488.98
2018-06-30T17:42:44.332Z,96491.31
2018-06-30T17:43:50.506Z,96493.06
2018-06-30T17:44:59.624Z,96491.47
2018-06-30T17:46:07.699Z,96496.51
2018-06-30T17:47:14.017Z,96496.89
2018-06-30T17:48:20.855Z,96499.56
2018-06-30T17:49:27.293Z,96501.66
2018-06-30T17:50:38.691Z,96501.44
2018-06-30T17:51:44.829Z,96498.50
2018-06-30T17:52:53.311Z,96497.98
2018-06-30T17:54:00.185Z,96502.89
2018-06-30T17:55:07.019Z,96504.26
2018-06-30T17:56:14.490Z,96502.66
2018-06-30T17:57:22.662Z,96499.50
2018-06-30T17:58:30.118Z,96502.81
2018-06-30T17:59:37.677Z,96505.27
2018-06-30T18:00:44.203Z,96512.11
2018-06-30T18:01:51.200Z,96504.59
2018-06-30T18:02:58.368Z,96511.24
2018-06-30T18:04:06.668Z,96511.97
2018-06-30T18:05:13.365Z,96513.11
2018-06-30T18:06:21.306Z,96511.09
2018-06-30T18:07:27.585Z,96511.82
2018-06-30T18:08:33.857Z,96515.51
2018-06-30T18:09:40.355Z,96516.88
2018-06-30T18:10:46.533Z,96514.83
2018-06-30T18:11:53.306Z,96517.95
2018-06-30T18:13:02.870Z,96516.92
2018-06-30T18:14:09.792Z,96516.28
2018-06-30T18:15:16.063Z,96512.17
2018-06-30T18:16:23.724Z,96518.94
2018-06-30T18:17:29.951Z,96515.78
2018-06-30T18:18:38.620Z,96520.23
2018-06-30T18:19:46.589Z,96519.95
2018-06-30T18:20:53.578Z,96517.14
2018-06-30T18:22:00.542Z,96519.46